Time;durP1;ratioP1;P1;durP2;ratioP2;P2;SDS_P1;SDS_P2;PMS_P1;PMS_P2;Temp;Humidity;BMP_temperature;BMP_pressure;BME280_temperature;BME280_humidity;BME280_pressure;Samples;Min_cycle;Max_cycle;Signal;HPM_P1;HPM_P2
2023/01/25 00:00:04;;;;;;;;;;;4.30;99.90;;;;;;4934304;29;19991;-80
2023/01/25 00:02:30;;;;;;;;;;;4.30;99.90;;;;;;4933915;29;19921;-81
2023/01/25 00:04:55;;;;;;;;;;;4.30;99.90;;;;;;4935642;29;19911;-82
2023/01/25 00:07:21;;;;;;;;;;;4.30;99.90;;;;;;4934339;29;19918;-81
2023/01/25 00:09:46;;;;;;;;;;;4.30;99.90;;;;;;4935766;29;20414;-80
2023/01/25 00:12:12;;;;;;;;;;;4.30;99.90;;;;;;4934128;29;19910;-80
2023/01/25 00:14:37;;;;;;;;;;;4.30;99.90;;;;;;4935798;29;19911;-81
2023/01/25 00:17:03;;;;;;;;;;;4.30;99.90;;;;;;4935279;29;19917;-81
2023/01/25 00:19:28;;;;;;;;;;;4.30;99.90;;;;;;4935446;29;19915;-80
2023/01/25 00:21:53;;;;;;;;;;;4.20;99.90;;;;;;4933876;29;19914;-81
2023/01/25 00:24:21;;;;;;;;;;;4.20;99.90;;;;;;4935291;29;20361;-81
2023/01/25 00:26:47;;;;;;;;;;;4.30;99.90;;;;;;4935374;29;19911;-81
2023/01/25 00:29:13;;;;;;;;;;;4.30;99.90;;;;;;4933886;29;20390;-80
2023/01/25 00:31:47;;;;;;;;;;;4.30;99.90;;;;;;4934966;29;19914;-81
2023/01/25 00:34:19;;;;;;;;;;;4.30;99.90;;;;;;4935890;29;19911;-81
2023/01/25 00:36:44;;;;;;;;;;;4.30;99.90;;;;;;4934738;29;19972;-82
2023/01/25 00:39:11;;;;;;;;;;;4.30;99.90;;;;;;4939053;29;20390;-82
2023/01/25 00:41:37;;;;;;;;;;;4.30;99.90;;;;;;4938487;29;19918;-81
2023/01/25 00:44:02;;;;;;;;;;;4.30;99.90;;;;;;4939705;29;20017;-81
2023/01/25 00:46:28;;;;;;;;;;;4.30;99.90;;;;;;4939150;29;19915;-81
2023/01/25 00:48:54;;;;;;;;;;;4.30;99.90;;;;;;4938728;29;20332;-80
2023/01/25 00:51:19;;;;;;;;;;;4.30;99.90;;;;;;4937370;29;19915;-81
2023/01/25 00:53:45;;;;;;;;;;;4.30;99.90;;;;;;4937369;29;19918;-79
2023/01/25 00:56:10;;;;;;;;;;;4.30;99.90;;;;;;4938343;29;19911;-81
2023/01/25 00:58:36;;;;;;;;;;;4.20;99.90;;;;;;4938353;29;20411;-80
2023/01/25 01:01:01;;;;;;;;;;;4.20;99.90;;;;;;4938325;29;19915;-80
2023/01/25 01:03:26;;;;;;;;;;;4.30;99.90;;;;;;4937215;29;19915;-80
2023/01/25 01:06:18;;;;;;;;;;;4.20;99.90;;;;;;4938621;29;19918;-80
2023/01/25 01:08:44;;;;;;;;;;;4.20;99.90;;;;;;4936113;29;20006;-80
2023/01/25 01:11:10;;;;;;;;;;;4.10;99.90;;;;;;4937710;29;19958;-80
2023/01/25 01:13:36;;;;;;;;;;;4.10;99.90;;;;;;4937930;29;19935;-81
2023/01/25 01:16:03;;;;;;;;;;;4.10;99.90;;;;;;4936544;29;19911;-79
2023/01/25 01:18:35;;;;;;;;;;;4.20;99.90;;;;;;4936541;29;19957;-81
2023/01/25 01:21:01;;;;;;;;;;;4.20;99.90;;;;;;4937512;29;20289;-81
2023/01/25 01:23:27;;;;;;;;;;;4.20;99.90;;;;;;4936422;29;19915;-81
2023/01/25 01:25:52;;;;;;;;;;;4.20;99.90;;;;;;4936436;29;19918;-81
2023/01/25 01:28:18;;;;;;;;;;;4.20;99.90;;;;;;4936006;29;19926;-79
2023/01/25 01:30:43;;;;;;;;;;;4.20;99.90;;;;;;4937633;29;19910;-81
2023/01/25 01:33:09;;;;;;;;;;;4.20;99.90;;;;;;4935924;29;19911;-80
2023/01/25 01:35:34;;;;;;;;;;;4.20;99.90;;;;;;4936156;29;19958;-80
2023/01/25 01:38:00;;;;;;;;;;;4.20;99.90;;;;;;4936168;29;19911;-80
2023/01/25 01:40:25;;;;;;;;;;;4.20;99.90;;;;;;4936159;29;20006;-80
2023/01/25 01:42:57;;;;;;;;;;;4.20;99.90;;;;;;4935704;29;19914;-81
2023/01/25 01:45:44;;;;;;;;;;;4.20;99.90;;;;;;4936195;29;19911;-81
2023/01/25 01:48:29;;;;;;;;;;;4.20;99.90;;;;;;4935543;29;19911;-81
2023/01/25 01:50:56;;;;;;;;;;;4.20;99.90;;;;;;4935750;29;20311;-81
2023/01/25 01:53:23;;;;;;;;;;;4.20;99.90;;;;;;4935518;29;20288;-81
2023/01/25 01:55:49;;;;;;;;;;;4.20;99.90;;;;;;4935829;29;19914;-81
2023/01/25 01:58:14;;;;;;;;;;;4.10;99.90;;;;;;4936933;29;19925;-81
2023/01/25 02:00:40;;;;;;;;;;;4.20;99.90;;;;;;4935893;29;19918;-81
2023/01/25 02:03:06;;;;;;;;;;;4.20;99.90;;;;;;4936655;29;19922;-80
2023/01/25 02:05:53;;;;;;;;;;;4.10;99.90;;;;;;4935722;29;19953;-80
2023/01/25 02:08:19;;;;;;;;;;;4.20;99.90;;;;;;4937916;29;20354;-81
2023/01/25 02:10:47;;;;;;;;;;;4.20;99.90;;;;;;4936630;29;19954;-80
2023/01/25 02:13:12;;;;;;;;;;;4.20;99.90;;;;;;4937923;29;20365;-81
2023/01/25 02:15:43;;;;;;;;;;;4.20;99.90;;;;;;4948189;29;19918;-81
2023/01/25 02:18:09;;;;;;;;;;;4.20;99.90;;;;;;4955641;28;19906;-80
2023/01/25 02:20:36;;;;;;;;;;;4.20;99.90;;;;;;4955777;28;19910;-81
2023/01/25 02:23:16;;;;;;;;;;;4.20;99.90;;;;;;4955331;28;19922;-81
2023/01/25 02:25:41;;;;;;;;;;;4.10;99.90;;;;;;4957280;28;20344;-79
2023/01/25 02:28:11;;;;;;;;;;;4.10;99.90;;;;;;4955733;28;19960;-81
2023/01/25 02:30:37;;;;;;;;;;;4.10;99.90;;;;;;4955485;28;19911;-80
2023/01/25 02:33:03;;;;;;;;;;;4.10;99.90;;;;;;4956558;28;20013;-82
2023/01/25 02:35:47;;;;;;;;;;;4.10;99.90;;;;;;4955489;28;19921;-81
2023/01/25 02:38:14;;;;;;;;;;;4.10;99.90;;;;;;4956748;28;20384;-81
2023/01/25 02:40:48;;;;;;;;;;;4.10;99.90;;;;;;4957245;28;19977;-81
2023/01/25 02:43:14;;;;;;;;;;;4.10;99.90;;;;;;4956663;28;19915;-82
2023/01/25 02:45:39;;;;;;;;;;;4.10;99.90;;;;;;4955568;28;20292;-82
2023/01/25 02:48:05;;;;;;;;;;;4.00;99.90;;;;;;4955198;28;19911;-81
2023/01/25 02:50:30;;;;;;;;;;;4.10;99.90;;;;;;4956918;28;20412;-82
2023/01/25 02:52:56;;;;;;;;;;;4.10;99.90;;;;;;4956514;28;19922;-81
2023/01/25 02:55:21;;;;;;;;;;;4.10;99.90;;;;;;4955982;28;20414;-81
2023/01/25 02:57:47;;;;;;;;;;;4.10;99.90;;;;;;4954829;28;19925;-80
2023/01/25 03:00:12;;;;;;;;;;;4.10;99.90;;;;;;4956254;28;19911;-81
2023/01/25 03:02:38;;;;;;;;;;;4.00;99.90;;;;;;4956625;28;19950;-81
2023/01/25 03:05:03;;;;;;;;;;;4.00;99.90;;;;;;4956854;28;19918;-81
2023/01/25 03:07:29;;;;;;;;;;;4.00;99.90;;;;;;4956655;28;19915;-81
2023/01/25 03:09:54;;;;;;;;;;;3.90;99.90;;;;;;4955016;28;19911;-82
2023/01/25 03:12:20;;;;;;;;;;;3.90;99.90;;;;;;4954747;28;20009;-82
2023/01/25 03:14:45;;;;;;;;;;;3.80;99.90;;;;;;4956396;28;20296;-81
2023/01/25 03:17:11;;;;;;;;;;;3.80;99.90;;;;;;4956074;28;19911;-81
2023/01/25 03:19:36;;;;;;;;;;;3.80;99.90;;;;;;4955963;28;19914;-81
2023/01/25 03:22:02;;;;;;;;;;;3.80;99.90;;;;;;4955902;28;20423;-81
2023/01/25 03:24:27;;;;;;;;;;;3.80;99.90;;;;;;4955083;28;19922;-81
2023/01/25 03:27:13;;;;;;;;;;;3.80;99.90;;;;;;4954668;28;19910;-80
2023/01/25 03:29:40;;;;;;;;;;;3.80;99.90;;;;;;4955828;28;19997;-80
2023/01/25 03:32:05;;;;;;;;;;;3.80;99.90;;;;;;4955830;28;19910;-80
2023/01/25 03:34:31;;;;;;;;;;;3.90;99.90;;;;;;4955923;28;19914;-81
2023/01/25 03:36:56;;;;;;;;;;;3.90;99.90;;;;;;4954636;28;20001;-81
2023/01/25 03:39:21;;;;;;;;;;;3.90;99.90;;;;;;4954884;28;20356;-80
2023/01/25 03:41:47;;;;;;;;;;;3.90;99.90;;;;;;4956041;28;19910;-81
2023/01/25 03:44:12;;;;;;;;;;;3.90;99.90;;;;;;4956270;28;19922;-81
2023/01/25 03:46:38;;;;;;;;;;;3.90;99.90;;;;;;4956545;28;19984;-80
2023/01/25 03:49:04;;;;;;;;;;;4.00;99.90;;;;;;4954949;28;19910;-81
2023/01/25 03:51:29;;;;;;;;;;;4.00;99.90;;;;;;4953074;28;19917;-81
2023/01/25 03:53:55;;;;;;;;;;;4.00;99.90;;;;;;4953432;28;20006;-81
2023/01/25 03:56:20;;;;;;;;;;;4.00;99.90;;;;;;4953101;28;19960;-80
2023/01/25 03:58:46;;;;;;;;;;;4.10;99.90;;;;;;4966842;23;20451;-84
2023/01/25 04:01:12;;;;;;;;;;;4.10;99.90;;;;;;4946747;28;19914;-85
2023/01/25 04:03:37;;;;;;;;;;;4.10;99.90;;;;;;4935809;29;19921;-85
2023/01/25 04:06:03;;;;;;;;;;;4.00;99.90;;;;;;4941315;29;19910;-84
2023/01/25 04:08:29;;;;;;;;;;;4.00;99.90;;;;;;4947090;28;19929;-84
2023/01/25 04:10:56;;;;;;;;;;;4.00;99.90;;;;;;4934622;29;19934;-83
2023/01/25 04:13:22;;;;;;;;;;;4.00;99.90;;;;;;4937922;29;19938;-84
2023/01/25 04:15:48;;;;;;;;;;;4.00;99.90;;;;;;4938623;29;19911;-85
2023/01/25 04:18:14;;;;;;;;;;;4.00;99.90;;;;;;4939612;29;19918;-83
2023/01/25 04:20:40;;;;;;;;;;;4.10;99.90;;;;;;4939732;29;19918;-83
2023/01/25 04:23:06;;;;;;;;;;;4.00;99.90;;;;;;4939160;29;19938;-85
2023/01/25 04:25:31;;;;;;;;;;;4.00;99.90;;;;;;4939414;29;19914;-84
2023/01/25 04:27:57;;;;;;;;;;;4.00;99.90;;;;;;4938191;29;19915;-85
2023/01/25 04:30:22;;;;;;;;;;;3.90;99.90;;;;;;4938338;29;19910;-85
2023/01/25 04:32:48;;;;;;;;;;;3.80;99.90;;;;;;4953949;29;19965;-86
2023/01/25 04:35:13;;;;;;;;;;;3.70;99.90;;;;;;4939490;29;19911;-84
2023/01/25 04:37:39;;;;;;;;;;;3.70;99.90;;;;;;4937835;29;19933;-85
2023/01/25 04:40:05;;;;;;;;;;;3.80;99.90;;;;;;4938070;29;20159;-85
2023/01/25 04:42:30;;;;;;;;;;;3.70;99.90;;;;;;4938706;29;19921;-84
2023/01/25 04:44:55;;;;;;;;;;;3.70;99.90;;;;;;4937912;29;19911;-84
2023/01/25 04:47:21;;;;;;;;;;;3.80;99.90;;;;;;4953567;29;19915;-85
2023/01/25 04:49:46;;;;;;;;;;;3.70;99.90;;;;;;4954028;28;19915;-84
2023/01/25 04:52:12;;;;;;;;;;;3.70;99.90;;;;;;4937593;29;19910;-84
2023/01/25 04:54:37;;;;;;;;;;;3.80;99.90;;;;;;4953845;29;19911;-85
2023/01/25 04:57:03;;;;;;;;;;;3.80;99.90;;;;;;4937794;29;19911;-85
2023/01/25 04:59:30;;;;;;;;;;;3.70;99.90;;;;;;4938803;29;20293;-85
2023/01/25 05:01:56;;;;;;;;;;;3.70;99.90;;;;;;4937073;29;19947;-84
2023/01/25 05:04:21;;;;;;;;;;;3.60;99.90;;;;;;4937491;29;20381;-84
2023/01/25 05:06:47;;;;;;;;;;;3.60;99.90;;;;;;4937583;29;19911;-84
2023/01/25 05:09:12;;;;;;;;;;;3.70;99.90;;;;;;4937389;29;19911;-85
2023/01/25 05:11:38;;;;;;;;;;;3.60;99.90;;;;;;4938613;29;19911;-85
2023/01/25 05:14:03;;;;;;;;;;;3.70;99.90;;;;;;4937512;29;20431;-83
2023/01/25 05:16:29;;;;;;;;;;;3.80;99.90;;;;;;4938710;29;19910;-84
2023/01/25 05:19:02;;;;;;;;;;;3.80;99.90;;;;;;4953328;28;19914;-84
2023/01/25 05:24:14;;;;;;;;;;;3.80;99.90;;;;;;4937528;29;19921;-85
2023/01/25 05:29:23;;;;;;;;;;;3.80;99.90;;;;;;4938820;29;19934;-84
2023/01/25 05:31:49;;;;;;;;;;;3.70;99.90;;;;;;4938103;29;19911;-84
2023/01/25 05:34:14;;;;;;;;;;;3.70;99.90;;;;;;4937487;29;20010;-83
2023/01/25 05:36:40;;;;;;;;;;;3.70;99.90;;;;;;4937050;29;19966;-85
2023/01/25 05:39:05;;;;;;;;;;;3.70;99.90;;;;;;4936686;29;20293;-85
2023/01/25 05:41:31;;;;;;;;;;;3.70;99.90;;;;;;4936825;29;19922;-84
2023/01/25 05:43:57;;;;;;;;;;;3.70;99.90;;;;;;4936986;29;19922;-85
2023/01/25 05:46:22;;;;;;;;;;;3.70;99.90;;;;;;4936559;29;19911;-85
2023/01/25 05:48:47;;;;;;;;;;;3.80;99.90;;;;;;4936676;29;19918;-83
2023/01/25 05:51:13;;;;;;;;;;;3.70;99.90;;;;;;4938147;29;19911;-85
2023/01/25 05:53:38;;;;;;;;;;;3.80;99.90;;;;;;4937061;29;20384;-84
2023/01/25 05:56:05;;;;;;;;;;;3.80;99.90;;;;;;4952699;29;19911;-84
2023/01/25 05:58:30;;;;;;;;;;;3.80;99.90;;;;;;4936707;29;19918;-84
2023/01/25 06:00:58;;;;;;;;;;;3.80;99.90;;;;;;4936349;29;19911;-84
2023/01/25 06:03:23;;;;;;;;;;;3.80;99.90;;;;;;4936348;29;19914;-85
2023/01/25 06:05:53;;;;;;;;;;;3.80;99.90;;;;;;4936246;29;19910;-84
2023/01/25 06:08:19;;;;;;;;;;;3.80;99.90;;;;;;4936471;29;19918;-84
2023/01/25 06:10:44;;;;;;;;;;;3.70;99.90;;;;;;4952522;29;19911;-85
2023/01/25 06:13:09;;;;;;;;;;;3.70;99.90;;;;;;4936295;29;20009;-85
2023/01/25 06:15:35;;;;;;;;;;;3.70;99.90;;;;;;4936220;29;19918;-85
2023/01/25 06:18:00;;;;;;;;;;;3.70;99.90;;;;;;4936322;29;19911;-84
2023/01/25 06:20:26;;;;;;;;;;;3.70;99.90;;;;;;4937590;29;19911;-83
2023/01/25 06:22:53;;;;;;;;;;;3.70;99.90;;;;;;4937160;29;19918;-85
2023/01/25 06:25:18;;;;;;;;;;;3.70;99.90;;;;;;4936060;29;19911;-85
2023/01/25 06:27:44;;;;;;;;;;;3.70;99.90;;;;;;4936244;29;19918;-83
2023/01/25 06:30:09;;;;;;;;;;;3.70;99.90;;;;;;4935990;29;19910;-85
2023/01/25 06:32:35;;;;;;;;;;;3.80;99.90;;;;;;4935704;29;19911;-84
2023/01/25 06:35:00;;;;;;;;;;;3.80;99.90;;;;;;4935483;29;19977;-84
2023/01/25 06:37:26;;;;;;;;;;;3.80;99.90;;;;;;4936314;29;20373;-84
2023/01/25 06:39:52;;;;;;;;;;;3.80;99.90;;;;;;4937334;29;19918;-84
2023/01/25 06:42:17;;;;;;;;;;;3.80;99.90;;;;;;4936966;29;19911;-84
2023/01/25 06:44:43;;;;;;;;;;;3.60;99.90;;;;;;4937000;29;19911;-84
2023/01/25 06:47:08;;;;;;;;;;;3.60;99.90;;;;;;4951765;29;19910;-86
2023/01/25 06:49:34;;;;;;;;;;;3.70;99.90;;;;;;4936984;29;20368;-84
2023/01/25 06:52:02;;;;;;;;;;;3.70;99.90;;;;;;4935323;29;20005;-85
2023/01/25 06:54:28;;;;;;;;;;;3.70;99.90;;;;;;4935629;29;19915;-85
2023/01/25 06:56:53;;;;;;;;;;;3.70;99.90;;;;;;4951646;29;19925;-84
2023/01/25 06:59:18;;;;;;;;;;;3.70;99.90;;;;;;4935568;29;19919;-84
2023/01/25 07:01:44;;;;;;;;;;;3.70;99.90;;;;;;4937154;29;19911;-83
2023/01/25 07:04:13;;;;;;;;;;;3.70;99.90;;;;;;4935628;29;19915;-84
2023/01/25 07:06:39;;;;;;;;;;;3.70;99.90;;;;;;4935548;29;19911;-84
2023/01/25 07:09:10;;;;;;;;;;;3.60;99.90;;;;;;4935447;29;20399;-84
2023/01/25 07:11:36;;;;;;;;;;;3.60;99.90;;;;;;4935661;29;19911;-83
2023/01/25 07:14:02;;;;;;;;;;;3.60;99.90;;;;;;4935567;29;19918;-84
2023/01/25 07:16:35;;;;;;;;;;;3.70;99.90;;;;;;4935547;29;19915;-83
2023/01/25 07:19:09;;;;;;;;;;;3.70;99.90;;;;;;4935239;29;19922;-84
2023/01/25 07:21:36;;;;;;;;;;;3.70;99.90;;;;;;4935982;29;19937;-85
2023/01/25 07:24:02;;;;;;;;;;;3.80;99.90;;;;;;4935058;29;19919;-84
2023/01/25 07:26:28;;;;;;;;;;;3.80;99.90;;;;;;4935113;29;19915;-84
2023/01/25 07:28:55;;;;;;;;;;;3.90;99.90;;;;;;4934972;29;20295;-85
2023/01/25 07:31:20;;;;;;;;;;;3.90;99.90;;;;;;4934673;29;19954;-84
2023/01/25 07:33:47;;;;;;;;;;;3.90;99.90;;;;;;4936400;29;20007;-84
2023/01/25 07:36:12;;;;;;;;;;;3.90;99.90;;;;;;4935223;29;19911;-84
2023/01/25 07:38:38;;;;;;;;;;;3.90;99.90;;;;;;4943293;29;19917;-86
2023/01/25 07:41:03;;;;;;;;;;;3.90;99.90;;;;;;4954410;29;19918;-84
2023/01/25 07:43:29;;;;;;;;;;;4.00;99.90;;;;;;4955458;28;19914;-84
2023/01/25 07:46:02;;;;;;;;;;;3.90;99.90;;;;;;4954502;28;19910;-84
2023/01/25 07:48:27;;;;;;;;;;;3.90;99.90;;;;;;4957753;28;19915;-84
2023/01/25 07:51:10;;;;;;;;;;;3.90;99.90;;;;;;4959056;28;20038;-84
2023/01/25 07:53:39;;;;;;;;;;;3.90;99.90;;;;;;4958128;29;20364;-83
2023/01/25 07:56:05;;;;;;;;;;;3.90;99.90;;;;;;4941570;29;19915;-84
2023/01/25 07:58:31;;;;;;;;;;;3.90;99.90;;;;;;4939776;29;19922;-84
2023/01/25 08:00:56;;;;;;;;;;;3.90;99.90;;;;;;4939805;29;20403;-85
2023/01/25 08:03:22;;;;;;;;;;;3.90;99.90;;;;;;4939801;29;19940;-83
2023/01/25 08:05:47;;;;;;;;;;;3.90;99.90;;;;;;4938640;29;19911;-84
2023/01/25 08:08:13;;;;;;;;;;;3.80;99.90;;;;;;4939953;29;19917;-84
2023/01/25 08:10:39;;;;;;;;;;;3.90;99.90;;;;;;4941331;29;19934;-83
2023/01/25 08:13:05;;;;;;;;;;;3.90;99.90;;;;;;4944400;28;19958;-84
2023/01/25 08:15:31;;;;;;;;;;;3.90;99.90;;;;;;4957462;29;19918;-84
2023/01/25 08:18:00;;;;;;;;;;;4.00;99.90;;;;;;4957472;28;19910;-84
2023/01/25 08:20:25;;;;;;;;;;;4.00;99.90;;;;;;4957553;28;20376;-83
2023/01/25 08:22:51;;;;;;;;;;;4.00;99.90;;;;;;4957220;29;19926;-85
2023/01/25 08:25:17;;;;;;;;;;;4.00;99.90;;;;;;4947016;29;19915;-83
2023/01/25 08:27:42;;;;;;;;;;;4.00;99.90;;;;;;4950606;28;19965;-83
2023/01/25 08:30:08;;;;;;;;;;;4.00;99.90;;;;;;4957234;28;19959;-83
2023/01/25 08:32:34;;;;;;;;;;;4.00;99.90;;;;;;4939857;28;19917;-83
2023/01/25 08:34:59;;;;;;;;;;;4.00;99.90;;;;;;4938802;29;20045;-83
2023/01/25 08:37:28;;;;;;;;;;;4.00;99.90;;;;;;4938718;29;19911;-83
2023/01/25 08:39:56;;;;;;;;;;;4.00;99.90;;;;;;4938726;29;20006;-83
2023/01/25 08:42:21;;;;;;;;;;;3.90;99.90;;;;;;4938110;29;19922;-83
2023/01/25 08:44:47;;;;;;;;;;;3.90;99.90;;;;;;4938445;29;20002;-83
2023/01/25 08:47:12;;;;;;;;;;;4.00;99.90;;;;;;4939360;29;19962;-84
2023/01/25 08:49:38;;;;;;;;;;;4.00;99.90;;;;;;4937819;29;19915;-83
2023/01/25 08:52:03;;;;;;;;;;;4.00;99.90;;;;;;4937756;29;19910;-83
2023/01/25 08:54:29;;;;;;;;;;;4.00;99.90;;;;;;4939428;29;19918;-83
2023/01/25 08:56:54;;;;;;;;;;;4.00;99.90;;;;;;4937998;29;20009;-83
2023/01/25 08:59:20;;;;;;;;;;;4.00;99.90;;;;;;4938976;29;19918;-84
2023/01/25 09:01:45;;;;;;;;;;;4.10;99.90;;;;;;4937336;29;19918;-83
2023/01/25 09:04:11;;;;;;;;;;;4.10;99.90;;;;;;4953735;28;19997;-83
2023/01/25 09:06:36;;;;;;;;;;;4.10;99.90;;;;;;4937689;29;19950;-83
2023/01/25 09:09:03;;;;;;;;;;;4.10;99.90;;;;;;4938127;29;19918;-83
2023/01/25 09:11:29;;;;;;;;;;;4.10;99.90;;;;;;4937653;29;19911;-83
2023/01/25 09:13:54;;;;;;;;;;;4.20;99.90;;;;;;4938172;29;19918;-83
2023/01/25 09:16:27;;;;;;;;;;;4.20;99.90;;;;;;4952849;28;19911;-83
2023/01/25 09:18:52;;;;;;;;;;;4.10;99.90;;;;;;4936439;29;19946;-84
2023/01/25 09:21:18;;;;;;;;;;;4.10;99.90;;;;;;4936213;29;19999;-83
2023/01/25 09:23:44;;;;;;;;;;;4.10;99.90;;;;;;4936300;29;19962;-84
2023/01/25 09:26:10;;;;;;;;;;;4.10;99.90;;;;;;4935783;29;19933;-83
2023/01/25 09:28:35;;;;;;;;;;;4.10;99.90;;;;;;4936225;29;20357;-83
2023/01/25 09:31:03;;;;;;;;;;;4.20;99.90;;;;;;4937021;29;19930;-83
2023/01/25 09:33:30;;;;;;;;;;;4.20;99.90;;;;;;4936222;29;19945;-84
2023/01/25 09:35:56;;;;;;;;;;;4.20;99.90;;;;;;4937433;29;19911;-82
2023/01/25 09:38:21;;;;;;;;;;;4.10;99.90;;;;;;4935769;29;19934;-82
2023/01/25 09:41:07;;;;;;;;;;;4.10;99.90;;;;;;4936272;29;19934;-82
2023/01/25 09:43:48;;;;;;;;;;;4.10;99.90;;;;;;4934914;29;19914;-82
2023/01/25 09:46:18;;;;;;;;;;;4.00;99.90;;;;;;4937168;29;19914;-82
2023/01/25 09:48:51;;;;;;;;;;;4.00;99.90;;;;;;4936546;29;20349;-82
2023/01/25 09:51:16;;;;;;;;;;;4.00;99.90;;;;;;4951675;28;19911;-82
2023/01/25 09:53:48;;;;;;;;;;;4.10;99.90;;;;;;4937789;29;19966;-81
2023/01/25 09:56:22;;;;;;;;;;;4.10;99.90;;;;;;4936302;29;19942;-82
2023/01/25 09:58:50;;;;;;;;;;;4.10;99.90;;;;;;4937630;29;19923;-82
2023/01/25 10:01:22;;;;;;;;;;;4.00;99.90;;;;;;4936065;29;19966;-83
2023/01/25 10:03:52;;;;;;;;;;;4.00;99.90;;;;;;4933458;29;19967;-82
2023/01/25 10:06:18;;;;;;;;;;;3.90;99.90;;;;;;4941145;29;20361;-83
2023/01/25 10:08:43;;;;;;;;;;;4.00;99.90;;;;;;4940081;28;19915;-83
2023/01/25 10:11:23;;;;;;;;;;;3.90;99.90;;;;;;4938239;28;20377;-82
2023/01/25 10:13:49;;;;;;;;;;;3.90;99.90;;;;;;4937086;29;20373;-82
2023/01/25 10:16:24;;;;;;;;;;;3.90;99.90;;;;;;4935489;29;19918;-82
2023/01/25 10:18:50;;;;;;;;;;;3.90;99.90;;;;;;4937086;29;20360;-82
2023/01/25 10:21:18;;;;;;;;;;;3.90;99.90;;;;;;4935617;29;19911;-82
2023/01/25 10:23:46;;;;;;;;;;;3.90;99.90;;;;;;4935700;29;19916;-82
2023/01/25 10:26:17;;;;;;;;;;;4.00;99.90;;;;;;4936803;29;19911;-82
2023/01/25 10:28:52;;;;;;;;;;;3.90;99.90;;;;;;4935410;29;19911;-83
2023/01/25 10:31:30;;;;;;;;;;;3.90;99.90;;;;;;4936900;29;19911;-83
2023/01/25 10:33:55;;;;;;;;;;;4.00;99.90;;;;;;4936409;29;20377;-81
2023/01/25 10:36:23;;;;;;;;;;;4.00;99.90;;;;;;4936217;29;19962;-82
2023/01/25 10:38:49;;;;;;;;;;;4.10;99.90;;;;;;4936024;29;19911;-84
2023/01/25 10:41:20;;;;;;;;;;;4.10;99.90;;;;;;4935414;29;20365;-82
2023/01/25 10:43:46;;;;;;;;;;;4.10;99.90;;;;;;4937223;29;19938;-82
2023/01/25 10:46:22;;;;;;;;;;;4.10;99.90;;;;;;4935946;29;19911;-82
2023/01/25 10:48:47;;;;;;;;;;;4.10;99.90;;;;;;4935619;29;19910;-82
2023/01/25 10:51:34;;;;;;;;;;;4.20;99.90;;;;;;4937037;29;19911;-83
2023/01/25 10:54:03;;;;;;;;;;;4.20;99.90;;;;;;4935550;29;19978;-83
2023/01/25 10:56:31;;;;;;;;;;;4.10;99.90;;;;;;4937109;29;19983;-83
2023/01/25 10:59:12;;;;;;;;;;;4.10;99.90;;;;;;4937022;29;19978;-83
2023/01/25 11:01:38;;;;;;;;;;;4.00;99.90;;;;;;4935155;29;19911;-85
2023/01/25 11:04:20;;;;;;;;;;;4.00;99.90;;;;;;4933075;29;19918;-85
2023/01/25 11:06:46;;;;;;;;;;;4.00;99.90;;;;;;4939875;29;20552;-85
2023/01/25 11:09:21;;;;;;;;;;;4.00;99.90;;;;;;4935408;29;19911;-85
2023/01/25 11:12:12;;;;;;;;;;;4.10;99.90;;;;;;4936327;29;20293;-86
2023/01/25 11:14:38;;;;;;;;;;;4.10;99.90;;;;;;4933295;29;20001;-85
2023/01/25 11:17:04;;;;;;;;;;;4.10;99.90;;;;;;4950984;28;19950;-84
2023/01/25 11:19:31;;;;;;;;;;;4.00;99.90;;;;;;4935241;29;19911;-85
2023/01/25 11:21:58;;;;;;;;;;;4.10;99.90;;;;;;4934171;29;19914;-85
2023/01/25 11:24:33;;;;;;;;;;;4.10;99.90;;;;;;4935350;29;19923;-85
2023/01/25 11:27:18;;;;;;;;;;;4.10;99.90;;;;;;4934815;29;19918;-84
2023/01/25 11:29:45;;;;;;;;;;;4.10;99.90;;;;;;4956419;28;19918;-85
2023/01/25 11:32:21;;;;;;;;;;;4.00;99.90;;;;;;4938663;28;19914;-84
2023/01/25 11:34:50;;;;;;;;;;;4.00;99.90;;;;;;4935288;29;19922;-85
2023/01/25 11:37:21;;;;;;;;;;;4.00;99.90;;;;;;4935530;29;19967;-85
2023/01/25 11:40:05;;;;;;;;;;;4.00;99.90;;;;;;4935487;29;19915;-85
2023/01/25 11:42:41;;;;;;;;;;;4.00;99.90;;;;;;4934889;29;19915;-84
2023/01/25 11:45:10;;;;;;;;;;;4.00;99.90;;;;;;4935399;29;20026;-85
2023/01/25 11:47:41;;;;;;;;;;;4.00;99.90;;;;;;4935472;29;19918;-85
2023/01/25 11:50:07;;;;;;;;;;;4.10;99.90;;;;;;4934886;29;20008;-85
2023/01/25 11:52:51;;;;;;;;;;;4.10;99.90;;;;;;4934569;29;20512;-85
2023/01/25 11:55:28;;;;;;;;;;;4.20;99.90;;;;;;4934743;29;19934;-85
2023/01/25 11:57:53;;;;;;;;;;;4.10;99.90;;;;;;4935416;29;19933;-86
2023/01/25 12:00:18;;;;;;;;;;;4.10;99.90;;;;;;4936341;29;20401;-85
2023/01/25 12:02:53;;;;;;;;;;;4.10;99.90;;;;;;4936476;29;19919;-85
2023/01/25 12:05:45;;;;;;;;;;;4.10;99.90;;;;;;4935858;29;19918;-85
2023/01/25 12:08:10;;;;;;;;;;;3.90;99.90;;;;;;4933132;29;19970;-85
2023/01/25 12:10:54;;;;;;;;;;;3.90;99.90;;;;;;4934787;29;19940;-85
2023/01/25 12:13:23;;;;;;;;;;;3.90;99.90;;;;;;4935239;29;19910;-85
2023/01/25 12:15:55;;;;;;;;;;;3.90;99.90;;;;;;4935136;29;19918;-84
2023/01/25 12:18:21;;;;;;;;;;;4.00;99.90;;;;;;4935118;29;19915;-84
2023/01/25 12:20:49;;;;;;;;;;;4.00;99.90;;;;;;4935739;29;19918;-84
2023/01/25 12:23:15;;;;;;;;;;;4.00;99.90;;;;;;4935159;29;19915;-84
2023/01/25 12:25:46;;;;;;;;;;;4.00;99.90;;;;;;4935582;29;19982;-86
2023/01/25 12:28:12;;;;;;;;;;;4.00;99.90;;;;;;4935183;29;19918;-86
2023/01/25 12:30:40;;;;;;;;;;;4.00;99.90;;;;;;4935253;29;19911;-87
2023/01/25 12:33:16;;;;;;;;;;;4.00;99.90;;;;;;4938575;29;20345;-86
2023/01/25 12:35:47;;;;;;;;;;;4.10;99.90;;;;;;4938445;29;20416;-87
2023/01/25 12:38:21;;;;;;;;;;;4.10;99.90;;;;;;4938567;29;20295;-86
2023/01/25 12:40:53;;;;;;;;;;;4.10;99.90;;;;;;4938890;29;20018;-87
2023/01/25 12:43:23;;;;;;;;;;;4.10;99.90;;;;;;4938745;29;19966;-89
2023/01/25 12:45:50;;;;;;;;;;;4.00;99.90;;;;;;4939092;29;19918;-84
2023/01/25 12:48:19;;;;;;;;;;;4.00;99.90;;;;;;4938021;29;19910;-84
2023/01/25 12:50:48;;;;;;;;;;;4.00;99.90;;;;;;4938413;29;19911;-84
2023/01/25 12:53:13;;;;;;;;;;;4.00;99.90;;;;;;4938756;29;19917;-84
2023/01/25 12:55:39;;;;;;;;;;;4.00;99.90;;;;;;4953552;28;19911;-83
2023/01/25 12:58:14;;;;;;;;;;;4.00;99.90;;;;;;4937722;29;19915;-84
2023/01/25 13:00:48;;;;;;;;;;;4.00;99.90;;;;;;4953691;28;19911;-84
2023/01/25 13:03:14;;;;;;;;;;;4.00;99.90;;;;;;4938440;29;19958;-84
2023/01/25 13:05:49;;;;;;;;;;;4.10;99.90;;;;;;4953550;28;20124;-84
2023/01/25 13:08:20;;;;;;;;;;;4.10;99.90;;;;;;4937412;29;20060;-84
2023/01/25 13:10:48;;;;;;;;;;;4.20;99.90;;;;;;4937276;29;19911;-85
2023/01/25 13:13:19;;;;;;;;;;;4.20;99.90;;;;;;4937162;29;20001;-84
2023/01/25 13:15:45;;;;;;;;;;;4.10;99.90;;;;;;4937295;29;19911;-84
2023/01/25 13:18:23;;;;;;;;;;;4.10;99.90;;;;;;4936795;29;19962;-84
2023/01/25 13:20:50;;;;;;;;;;;4.10;99.90;;;;;;4953462;28;19911;-84
2023/01/25 13:23:33;;;;;;;;;;;4.10;99.90;;;;;;4938472;29;19915;-84
2023/01/25 13:26:17;;;;;;;;;;;4.10;99.90;;;;;;4953216;28;20368;-84
2023/01/25 13:28:45;;;;;;;;;;;4.10;99.90;;;;;;4953158;28;19911;-84
2023/01/25 13:31:30;;;;;;;;;;;4.00;99.90;;;;;;4936899;29;19914;-84
2023/01/25 13:33:59;;;;;;;;;;;4.00;99.90;;;;;;4938507;29;19915;-85
2023/01/25 13:36:44;;;;;;;;;;;3.90;99.90;;;;;;4937608;29;19934;-85
2023/01/25 13:39:31;;;;;;;;;;;3.90;99.90;;;;;;4936729;29;19918;-84
2023/01/25 13:41:59;;;;;;;;;;;3.90;99.90;;;;;;4952812;28;19910;-84
2023/01/25 13:44:27;;;;;;;;;;;3.90;99.90;;;;;;4951957;28;19962;-84
2023/01/25 13:46:53;;;;;;;;;;;3.90;99.90;;;;;;4936827;29;19911;-84
2023/01/25 13:49:23;;;;;;;;;;;3.90;99.90;;;;;;4936837;29;20362;-84
2023/01/25 13:51:48;;;;;;;;;;;3.90;99.90;;;;;;4937459;29;19911;-85
2023/01/25 13:54:17;;;;;;;;;;;3.90;99.90;;;;;;4936613;29;19918;-85
2023/01/25 13:56:43;;;;;;;;;;;3.90;99.90;;;;;;4936354;29;19910;-84
2023/01/25 13:59:25;;;;;;;;;;;3.90;99.90;;;;;;4936374;29;20337;-84
2023/01/25 14:01:51;;;;;;;;;;;3.80;99.90;;;;;;4936953;29;20325;-84
2023/01/25 14:04:17;;;;;;;;;;;3.80;99.90;;;;;;4952267;29;20001;-84
2023/01/25 14:06:43;;;;;;;;;;;3.60;99.90;;;;;;4937476;29;19953;-85
2023/01/25 14:09:16;;;;;;;;;;;3.50;99.90;;;;;;4937646;29;20369;-85
2023/01/25 14:11:54;;;;;;;;;;;3.50;99.90;;;;;;4936535;29;19914;-86
2023/01/25 14:14:28;;;;;;;;;;;3.50;99.90;;;;;;4935711;29;19993;-86
2023/01/25 14:17:00;;;;;;;;;;;3.50;99.90;;;;;;4935506;29;19911;-86
2023/01/25 14:19:30;;;;;;;;;;;3.40;99.90;;;;;;4935239;29;19917;-86
2023/01/25 14:22:22;;;;;;;;;;;3.40;99.90;;;;;;4935358;29;19911;-86
2023/01/25 14:25:06;;;;;;;;;;;3.40;99.90;;;;;;4933225;29;19941;-85
2023/01/25 14:27:55;;;;;;;;;;;3.40;99.90;;;;;;4935420;29;20384;-86
2023/01/25 14:30:21;;;;;;;;;;;3.40;99.90;;;;;;4929709;29;19919;-86
2023/01/25 14:32:47;;;;;;;;;;;3.30;99.90;;;;;;4934418;29;20002;-87
2023/01/25 14:35:28;;;;;;;;;;;3.40;99.90;;;;;;4936386;29;19911;-87
2023/01/25 14:37:54;;;;;;;;;;;3.50;99.90;;;;;;4934961;29;20325;-87
2023/01/25 14:40:21;;;;;;;;;;;3.50;99.90;;;;;;4936178;29;19918;-86
2023/01/25 14:42:47;;;;;;;;;;;3.50;99.90;;;;;;4935232;29;19919;-86